OZHAB weather

Adelaide River Helicopter Landing Site
Adelaide River, Northern Territory, Australia

Public forecast

Using degrees Celsius for public forecast. Weather courtesy of forecast.io.

Closest aviation weather report (METAR) to Adelaide River Helicopter Landing Site

Closest report is Darwin International Airport, 51.1 nm (94.7 km) NNW. Retrieved 2020/06/01 05:30 UTC (29 minutes ago):

YPDN 010530Z 32009KT 9999 FEW030 30/22 Q1012 NOSIG

Closest aviation forecast (TAF) to Adelaide River Helicopter Landing Site

Closest forecast is Darwin International Airport, 51.1 nm (94.7 km) NNW. Retrieved 2020-06-01 00:00 UTC (6 hours ago):

TAF YPDN 312327Z 0100/0206 08010KT CAVOK FM010400 33008KT CAVOK FM011200 VRB03KT 9999 FEW020 FM012300 11012KT CAVOK FM020400 07010KT CAVOK